sensor_id;sensor_type;location;lat;lon;timestamp;temperature;humidity
35373;DHT22;21476;51.652;7.852;2022-08-02T00:01:28;14.80;99.90
35373;DHT22;21476;51.652;7.852;2022-08-02T00:03:54;14.70;99.90
35373;DHT22;21476;51.652;7.852;2022-08-02T00:06:20;14.70;99.90
35373;DHT22;21476;51.652;7.852;2022-08-02T00:08:46;14.80;99.90
35373;DHT22;21476;51.652;7.852;2022-08-02T00:11:11;14.70;99.90
35373;DHT22;21476;51.652;7.852;2022-08-02T00:13:37;14.70;99.90
35373;DHT22;21476;51.652;7.852;2022-08-02T00:16:03;14.70;99.90
35373;DHT22;21476;51.652;7.852;2022-08-02T00:18:29;14.60;99.90
35373;DHT22;21476;51.652;7.852;2022-08-02T00:20:54;14.50;99.90
35373;DHT22;21476;51.652;7.852;2022-08-02T00:23:20;14.50;99.90
35373;DHT22;21476;51.652;7.852;2022-08-02T00:25:46;14.50;99.90
35373;DHT22;21476;51.652;7.852;2022-08-02T00:28:12;14.60;99.90
35373;DHT22;21476;51.652;7.852;2022-08-02T00:30:37;14.50;99.90
35373;DHT22;21476;51.652;7.852;2022-08-02T00:33:03;14.40;99.90
35373;DHT22;21476;51.652;7.852;2022-08-02T00:35:33;14.40;99.90
35373;DHT22;21476;51.652;7.852;2022-08-02T00:37:59;14.50;99.90
35373;DHT22;21476;51.652;7.852;2022-08-02T00:40:25;14.50;99.90
35373;DHT22;21476;51.652;7.852;2022-08-02T00:43:07;14.50;99.90
35373;DHT22;21476;51.652;7.852;2022-08-02T00:45:35;14.40;99.90
35373;DHT22;21476;51.652;7.852;2022-08-02T00:48:01;14.40;99.90
35373;DHT22;21476;51.652;7.852;2022-08-02T00:50:27;14.30;99.90
35373;DHT22;21476;51.652;7.852;2022-08-02T00:52:53;14.30;99.90
35373;DHT22;21476;51.652;7.852;2022-08-02T00:55:20;14.40;99.90
35373;DHT22;21476;51.652;7.852;2022-08-02T00:57:46;14.40;99.90
35373;DHT22;21476;51.652;7.852;2022-08-02T01:00:12;14.40;99.90
35373;DHT22;21476;51.652;7.852;2022-08-02T01:02:38;14.40;99.90
35373;DHT22;21476;51.652;7.852;2022-08-02T01:05:04;14.30;99.90
35373;DHT22;21476;51.652;7.852;2022-08-02T01:07:30;14.20;99.90
35373;DHT22;21476;51.652;7.852;2022-08-02T01:09:56;14.20;99.90
35373;DHT22;21476;51.652;7.852;2022-08-02T01:12:22;14.20;99.90
35373;DHT22;21476;51.652;7.852;2022-08-02T01:14:53;14.20;99.90
35373;DHT22;21476;51.652;7.852;2022-08-02T01:19:53;14.20;99.90
35373;DHT22;21476;51.652;7.852;2022-08-02T01:28:35;14.20;99.90
35373;DHT22;21476;51.652;7.852;2022-08-02T01:31:18;14.20;99.90
35373;DHT22;21476;51.652;7.852;2022-08-02T01:34:12;14.10;99.90
35373;DHT22;21476;51.652;7.852;2022-08-02T01:36:43;14.00;99.90
35373;DHT22;21476;51.652;7.852;2022-08-02T01:39:14;13.90;99.90
35373;DHT22;21476;51.652;7.852;2022-08-02T01:41:42;13.80;99.90
35373;DHT22;21476;51.652;7.852;2022-08-02T01:44:12;13.80;99.90
35373;DHT22;21476;51.652;7.852;2022-08-02T01:46:41;13.70;99.90
35373;DHT22;21476;51.652;7.852;2022-08-02T01:49:11;13.70;99.90
35373;DHT22;21476;51.652;7.852;2022-08-02T01:51:39;13.70;99.90
35373;DHT22;21476;51.652;7.852;2022-08-02T01:54:28;13.60;99.90
35373;DHT22;21476;51.652;7.852;2022-08-02T01:56:55;13.70;99.90
35373;DHT22;21476;51.652;7.852;2022-08-02T01:59:22;13.60;99.90
35373;DHT22;21476;51.652;7.852;2022-08-02T02:01:50;13.70;99.90
35373;DHT22;21476;51.652;7.852;2022-08-02T02:04:19;13.70;99.90
35373;DHT22;21476;51.652;7.852;2022-08-02T02:06:45;13.70;99.90
35373;DHT22;21476;51.652;7.852;2022-08-02T02:09:13;13.70;99.90
35373;DHT22;21476;51.652;7.852;2022-08-02T02:11:42;13.70;99.90
35373;DHT22;21476;51.652;7.852;2022-08-02T02:14:09;13.70;99.90
35373;DHT22;21476;51.652;7.852;2022-08-02T02:16:36;13.70;99.90
35373;DHT22;21476;51.652;7.852;2022-08-02T02:19:06;13.70;99.90
35373;DHT22;21476;51.652;7.852;2022-08-02T02:21:32;13.70;99.90
35373;DHT22;21476;51.652;7.852;2022-08-02T02:23:58;13.60;99.90
35373;DHT22;21476;51.652;7.852;2022-08-02T02:26:24;13.60;99.90
35373;DHT22;21476;51.652;7.852;2022-08-02T02:28:51;13.60;99.90
35373;DHT22;21476;51.652;7.852;2022-08-02T02:31:19;13.50;99.90
35373;DHT22;21476;51.652;7.852;2022-08-02T02:33:49;13.50;99.90
35373;DHT22;21476;51.652;7.852;2022-08-02T02:36:17;13.50;99.90
35373;DHT22;21476;51.652;7.852;2022-08-02T02:38:44;13.50;99.90
35373;DHT22;21476;51.652;7.852;2022-08-02T02:41:12;13.50;99.90
35373;DHT22;21476;51.652;7.852;2022-08-02T02:43:39;13.40;99.90
35373;DHT22;21476;51.652;7.852;2022-08-02T02:46:06;13.40;99.90
35373;DHT22;21476;51.652;7.852;2022-08-02T02:48:34;13.40;99.90
35373;DHT22;21476;51.652;7.852;2022-08-02T02:51:03;13.40;99.90
35373;DHT22;21476;51.652;7.852;2022-08-02T02:53:30;13.40;99.90
35373;DHT22;21476;51.652;7.852;2022-08-02T02:55:56;13.40;99.90
35373;DHT22;21476;51.652;7.852;2022-08-02T02:58:22;13.30;99.90
35373;DHT22;21476;51.652;7.852;2022-08-02T03:00:49;13.30;99.90
35373;DHT22;21476;51.652;7.852;2022-08-02T03:03:35;13.20;99.90
35373;DHT22;21476;51.652;7.852;2022-08-02T03:06:01;13.10;99.90
35373;DHT22;21476;51.652;7.852;2022-08-02T03:08:28;13.20;99.90
35373;DHT22;21476;51.652;7.852;2022-08-02T03:10:54;13.20;99.90
35373;DHT22;21476;51.652;7.852;2022-08-02T03:13:19;13.20;99.90
35373;DHT22;21476;51.652;7.852;2022-08-02T03:15:45;13.20;99.90
35373;DHT22;21476;51.652;7.852;2022-08-02T03:18:33;13.20;99.90
35373;DHT22;21476;51.652;7.852;2022-08-02T03:21:07;13.20;99.90
35373;DHT22;21476;51.652;7.852;2022-08-02T03:23:33;13.20;99.90
35373;DHT22;21476;51.652;7.852;2022-08-02T03:26:00;13.20;99.90
35373;DHT22;21476;51.652;7.852;2022-08-02T03:28:26;13.20;99.90
35373;DHT22;21476;51.652;7.852;2022-08-02T03:30:52;13.20;99.90
35373;DHT22;21476;51.652;7.852;2022-08-02T03:33:19;13.20;99.90
35373;DHT22;21476;51.652;7.852;2022-08-02T03:35:46;13.20;99.90
35373;DHT22;21476;51.652;7.852;2022-08-02T03:38:13;13.10;99.90
35373;DHT22;21476;51.652;7.852;2022-08-02T03:40:42;13.10;99.90
35373;DHT22;21476;51.652;7.852;2022-08-02T03:43:09;13.10;99.90
35373;DHT22;21476;51.652;7.852;2022-08-02T03:45:37;13.00;99.90
35373;DHT22;21476;51.652;7.852;2022-08-02T03:48:04;13.00;99.90
35373;DHT22;21476;51.652;7.852;2022-08-02T03:50:31;13.00;99.90
35373;DHT22;21476;51.652;7.852;2022-08-02T03:52:58;13.00;99.90
35373;DHT22;21476;51.652;7.852;2022-08-02T03:55:24;13.00;99.90
35373;DHT22;21476;51.652;7.852;2022-08-02T03:57:50;13.00;99.90
35373;DHT22;21476;51.652;7.852;2022-08-02T04:00:20;13.00;99.90
35373;DHT22;21476;51.652;7.852;2022-08-02T04:02:47;13.00;99.90
35373;DHT22;21476;51.652;7.852;2022-08-02T04:05:14;12.80;99.90
35373;DHT22;21476;51.652;7.852;2022-08-02T04:07:40;12.80;99.90
35373;DHT22;21476;51.652;7.852;2022-08-02T04:10:08;12.80;99.90
35373;DHT22;21476;51.652;7.852;2022-08-02T04:12:34;12.90;99.90
35373;DHT22;21476;51.652;7.852;2022-08-02T04:15:01;12.80;99.90
35373;DHT22;21476;51.652;7.852;2022-08-02T04:17:31;12.80;99.90
35373;DHT22;21476;51.652;7.852;2022-08-02T04:20:06;12.90;99.90
35373;DHT22;21476;51.652;7.852;2022-08-02T04:22:46;12.70;99.90
35373;DHT22;21476;51.652;7.852;2022-08-02T04:25:14;12.80;99.90
35373;DHT22;21476;51.652;7.852;2022-08-02T04:27:41;12.90;99.90
35373;DHT22;21476;51.652;7.852;2022-08-02T04:30:08;13.00;99.90
35373;DHT22;21476;51.652;7.852;2022-08-02T04:32:34;13.20;99.90
35373;DHT22;21476;51.652;7.852;2022-08-02T04:35:00;13.40;99.90
35373;DHT22;21476;51.652;7.852;2022-08-02T04:37:26;13.70;99.90
35373;DHT22;21476;51.652;7.852;2022-08-02T04:39:52;13.90;99.90
35373;DHT22;21476;51.652;7.852;2022-08-02T04:42:22;14.10;99.90
35373;DHT22;21476;51.652;7.852;2022-08-02T04:44:48;14.50;99.90
35373;DHT22;21476;51.652;7.852;2022-08-02T04:47:14;14.90;99.90
35373;DHT22;21476;51.652;7.852;2022-08-02T04:49:40;15.40;99.90
35373;DHT22;21476;51.652;7.852;2022-08-02T04:52:06;16.70;99.90
35373;DHT22;21476;51.652;7.852;2022-08-02T04:54:31;17.90;99.90
35373;DHT22;21476;51.652;7.852;2022-08-02T04:56:57;19.10;99.90
35373;DHT22;21476;51.652;7.852;2022-08-02T04:59:22;20.00;99.90
35373;DHT22;21476;51.652;7.852;2022-08-02T05:01:48;20.70;99.90
35373;DHT22;21476;51.652;7.852;2022-08-02T05:04:14;21.00;99.90
35373;DHT22;21476;51.652;7.852;2022-08-02T05:06:39;21.00;99.90
35373;DHT22;21476;51.652;7.852;2022-08-02T05:09:05;21.50;99.90
35373;DHT22;21476;51.652;7.852;2022-08-02T05:11:31;22.60;99.90
35373;DHT22;21476;51.652;7.852;2022-08-02T05:13:57;22.60;99.90
35373;DHT22;21476;51.652;7.852;2022-08-02T05:16:22;22.40;99.90
35373;DHT22;21476;51.652;7.852;2022-08-02T05:18:50;22.80;99.90
35373;DHT22;21476;51.652;7.852;2022-08-02T05:21:16;23.30;99.90
35373;DHT22;21476;51.652;7.852;2022-08-02T05:23:42;23.00;99.90
35373;DHT22;21476;51.652;7.852;2022-08-02T05:26:07;23.00;99.90
35373;DHT22;21476;51.652;7.852;2022-08-02T05:28:33;24.10;99.90
35373;DHT22;21476;51.652;7.852;2022-08-02T05:30:59;23.80;99.90
35373;DHT22;21476;51.652;7.852;2022-08-02T05:33:25;23.30;99.90
35373;DHT22;21476;51.652;7.852;2022-08-02T05:35:50;22.30;99.90
35373;DHT22;21476;51.652;7.852;2022-08-02T05:38:16;22.30;99.90
35373;DHT22;21476;51.652;7.852;2022-08-02T05:40:42;21.80;99.90
35373;DHT22;21476;51.652;7.852;2022-08-02T05:43:14;21.70;99.90
35373;DHT22;21476;51.652;7.852;2022-08-02T05:45:40;21.60;99.90
35373;DHT22;21476;51.652;7.852;2022-08-02T05:48:07;21.40;99.90
35373;DHT22;21476;51.652;7.852;2022-08-02T05:50:38;21.20;99.90
35373;DHT22;21476;51.652;7.852;2022-08-02T05:53:35;21.10;99.90
35373;DHT22;21476;51.652;7.852;2022-08-02T05:56:24;21.10;99.90
35373;DHT22;21476;51.652;7.852;2022-08-02T05:59:43;21.20;99.90
35373;DHT22;21476;51.652;7.852;2022-08-02T06:01:47;21.60;99.90
35373;DHT22;21476;51.652;7.852;2022-08-02T06:04:22;21.60;99.90
35373;DHT22;21476;51.652;7.852;2022-08-02T06:06:54;21.20;99.90
35373;DHT22;21476;51.652;7.852;2022-08-02T06:09:21;20.70;99.90
35373;DHT22;21476;51.652;7.852;2022-08-02T06:11:50;20.30;99.90
35373;DHT22;21476;51.652;7.852;2022-08-02T06:14:17;20.40;99.90
35373;DHT22;21476;51.652;7.852;2022-08-02T06:16:44;21.00;99.90
35373;DHT22;21476;51.652;7.852;2022-08-02T06:19:13;21.30;99.90
35373;DHT22;21476;51.652;7.852;2022-08-02T06:21:40;21.90;99.90
35373;DHT22;21476;51.652;7.852;2022-08-02T06:24:09;21.30;99.90
35373;DHT22;21476;51.652;7.852;2022-08-02T06:26:35;21.10;99.90
35373;DHT22;21476;51.652;7.852;2022-08-02T06:29:02;21.10;99.90
35373;DHT22;21476;51.652;7.852;2022-08-02T06:31:28;21.20;99.90
35373;DHT22;21476;51.652;7.852;2022-08-02T06:33:54;21.70;99.90
35373;DHT22;21476;51.652;7.852;2022-08-02T06:36:46;21.90;99.90
35373;DHT22;21476;51.652;7.852;2022-08-02T06:39:29;22.20;99.90
35373;DHT22;21476;51.652;7.852;2022-08-02T06:41:58;22.70;99.90
35373;DHT22;21476;51.652;7.852;2022-08-02T06:44:28;22.80;99.90
35373;DHT22;21476;51.652;7.852;2022-08-02T06:46:54;22.80;99.90
35373;DHT22;21476;51.652;7.852;2022-08-02T06:49:19;23.50;99.90
35373;DHT22;21476;51.652;7.852;2022-08-02T06:51:45;23.50;99.90
35373;DHT22;21476;51.652;7.852;2022-08-02T06:54:12;23.60;99.90
35373;DHT22;21476;51.652;7.852;2022-08-02T06:56:44;23.50;99.90
35373;DHT22;21476;51.652;7.852;2022-08-02T06:59:11;23.70;99.90
35373;DHT22;21476;51.652;7.852;2022-08-02T07:01:37;23.80;99.90
35373;DHT22;21476;51.652;7.852;2022-08-02T07:04:03;23.70;99.90
35373;DHT22;21476;51.652;7.852;2022-08-02T07:06:29;23.70;99.90
35373;DHT22;21476;51.652;7.852;2022-08-02T07:08:55;23.70;99.90
35373;DHT22;21476;51.652;7.852;2022-08-02T07:11:20;24.10;99.90
35373;DHT22;21476;51.652;7.852;2022-08-02T07:13:46;24.30;99.90
35373;DHT22;21476;51.652;7.852;2022-08-02T07:16:13;24.50;99.90
35373;DHT22;21476;51.652;7.852;2022-08-02T07:18:38;25.00;99.90
35373;DHT22;21476;51.652;7.852;2022-08-02T07:21:04;25.20;99.90
35373;DHT22;21476;51.652;7.852;2022-08-02T07:23:31;25.20;99.90
35373;DHT22;21476;51.652;7.852;2022-08-02T07:25:57;24.90;99.90
35373;DHT22;21476;51.652;7.852;2022-08-02T07:28:22;25.00;99.90
35373;DHT22;21476;51.652;7.852;2022-08-02T07:30:48;25.40;99.90
35373;DHT22;21476;51.652;7.852;2022-08-02T07:33:14;25.70;99.90
35373;DHT22;21476;51.652;7.852;2022-08-02T07:35:40;25.60;99.90
35373;DHT22;21476;51.652;7.852;2022-08-02T07:38:06;25.50;99.90
35373;DHT22;21476;51.652;7.852;2022-08-02T07:40:32;25.50;99.90
35373;DHT22;21476;51.652;7.852;2022-08-02T07:42:58;25.80;99.90
35373;DHT22;21476;51.652;7.852;2022-08-02T07:45:24;26.20;99.90
35373;DHT22;21476;51.652;7.852;2022-08-02T07:47:50;26.40;99.90
35373;DHT22;21476;51.652;7.852;2022-08-02T07:50:18;26.50;99.90
35373;DHT22;21476;51.652;7.852;2022-08-02T07:52:44;26.70;99.90
35373;DHT22;21476;51.652;7.852;2022-08-02T07:55:12;26.90;99.90
35373;DHT22;21476;51.652;7.852;2022-08-02T07:57:39;27.00;99.90
35373;DHT22;21476;51.652;7.852;2022-08-02T08:00:06;27.00;99.90
35373;DHT22;21476;51.652;7.852;2022-08-02T08:02:33;26.90;99.90
35373;DHT22;21476;51.652;7.852;2022-08-02T08:04:58;26.80;99.90
35373;DHT22;21476;51.652;7.852;2022-08-02T08:07:24;27.00;99.90
35373;DHT22;21476;51.652;7.852;2022-08-02T08:09:50;27.40;99.90
35373;DHT22;21476;51.652;7.852;2022-08-02T08:12:16;27.40;99.90
35373;DHT22;21476;51.652;7.852;2022-08-02T08:14:42;27.50;99.90
35373;DHT22;21476;51.652;7.852;2022-08-02T08:17:08;27.40;99.90
35373;DHT22;21476;51.652;7.852;2022-08-02T08:19:34;27.60;99.90
35373;DHT22;21476;51.652;7.852;2022-08-02T08:22:00;27.70;99.90
35373;DHT22;21476;51.652;7.852;2022-08-02T08:24:27;28.00;99.90
35373;DHT22;21476;51.652;7.852;2022-08-02T08:26:53;28.00;99.90
35373;DHT22;21476;51.652;7.852;2022-08-02T08:29:19;28.30;99.90
35373;DHT22;21476;51.652;7.852;2022-08-02T08:31:46;28.30;99.90
35373;DHT22;21476;51.652;7.852;2022-08-02T08:34:12;28.50;99.90
35373;DHT22;21476;51.652;7.852;2022-08-02T08:36:39;28.70;99.90
35373;DHT22;21476;51.652;7.852;2022-08-02T08:39:05;29.00;99.90
35373;DHT22;21476;51.652;7.852;2022-08-02T08:41:30;29.00;99.90
35373;DHT22;21476;51.652;7.852;2022-08-02T08:43:56;28.80;99.90
35373;DHT22;21476;51.652;7.852;2022-08-02T08:46:32;28.60;99.90
35373;DHT22;21476;51.652;7.852;2022-08-02T08:49:24;28.50;99.90
35373;DHT22;21476;51.652;7.852;2022-08-02T08:51:54;28.00;99.90
35373;DHT22;21476;51.652;7.852;2022-08-02T08:54:22;27.60;99.90
35373;DHT22;21476;51.652;7.852;2022-08-02T08:56:50;27.80;99.90
35373;DHT22;21476;51.652;7.852;2022-08-02T08:59:16;28.30;99.20
35373;DHT22;21476;51.652;7.852;2022-08-02T09:01:44;28.30;98.20
35373;DHT22;21476;51.652;7.852;2022-08-02T09:04:10;28.30;98.30
35373;DHT22;21476;51.652;7.852;2022-08-02T09:06:38;28.90;96.60
35373;DHT22;21476;51.652;7.852;2022-08-02T09:09:03;29.10;96.90
35373;DHT22;21476;51.652;7.852;2022-08-02T09:11:29;29.40;96.70
35373;DHT22;21476;51.652;7.852;2022-08-02T09:13:57;29.60;94.00
35373;DHT22;21476;51.652;7.852;2022-08-02T09:16:29;30.00;94.20
35373;DHT22;21476;51.652;7.852;2022-08-02T09:18:55;30.40;93.90
35373;DHT22;21476;51.652;7.852;2022-08-02T09:21:21;30.40;92.10
35373;DHT22;21476;51.652;7.852;2022-08-02T09:23:48;30.10;92.40
35373;DHT22;21476;51.652;7.852;2022-08-02T09:26:18;30.10;92.40
35373;DHT22;21476;51.652;7.852;2022-08-02T09:28:49;30.20;91.50
35373;DHT22;21476;51.652;7.852;2022-08-02T09:31:18;30.30;92.50
35373;DHT22;21476;51.652;7.852;2022-08-02T09:36:17;29.80;92.30
35373;DHT22;21476;51.652;7.852;2022-08-02T09:41:27;30.30;91.50
35373;DHT22;21476;51.652;7.852;2022-08-02T09:43:54;30.40;91.30
35373;DHT22;21476;51.652;7.852;2022-08-02T09:46:28;30.10;92.20
35373;DHT22;21476;51.652;7.852;2022-08-02T09:49:01;30.00;92.50
35373;DHT22;21476;51.652;7.852;2022-08-02T09:51:33;30.10;92.80
35373;DHT22;21476;51.652;7.852;2022-08-02T09:54:08;30.50;93.00
35373;DHT22;21476;51.652;7.852;2022-08-02T09:56:44;30.30;92.90
35373;DHT22;21476;51.652;7.852;2022-08-02T09:59:11;30.60;92.00
35373;DHT22;21476;51.652;7.852;2022-08-02T10:01:38;30.80;93.10
35373;DHT22;21476;51.652;7.852;2022-08-02T10:04:06;30.90;92.70
35373;DHT22;21476;51.652;7.852;2022-08-02T10:06:33;30.80;92.00
35373;DHT22;21476;51.652;7.852;2022-08-02T10:08:58;30.80;91.10
35373;DHT22;21476;51.652;7.852;2022-08-02T10:11:26;30.70;91.50
35373;DHT22;21476;51.652;7.852;2022-08-02T10:13:53;30.70;92.30
35373;DHT22;21476;51.652;7.852;2022-08-02T10:16:21;30.90;92.60
35373;DHT22;21476;51.652;7.852;2022-08-02T10:18:55;31.30;92.90
35373;DHT22;21476;51.652;7.852;2022-08-02T10:21:28;31.50;92.80
35373;DHT22;21476;51.652;7.852;2022-08-02T10:24:08;31.70;92.00
35373;DHT22;21476;51.652;7.852;2022-08-02T10:26:35;31.40;93.60
35373;DHT22;21476;51.652;7.852;2022-08-02T10:29:07;31.10;93.80
35373;DHT22;21476;51.652;7.852;2022-08-02T10:31:38;30.70;92.70
35373;DHT22;21476;51.652;7.852;2022-08-02T10:34:09;30.50;92.90
35373;DHT22;21476;51.652;7.852;2022-08-02T10:36:38;30.70;93.70
35373;DHT22;21476;51.652;7.852;2022-08-02T10:39:05;31.20;92.90
35373;DHT22;21476;51.652;7.852;2022-08-02T10:41:45;31.00;92.50
35373;DHT22;21476;51.652;7.852;2022-08-02T10:44:29;30.70;92.60
35373;DHT22;21476;51.652;7.852;2022-08-02T10:49:52;30.40;93.80
35373;DHT22;21476;51.652;7.852;2022-08-02T10:52:20;30.20;92.80
35373;DHT22;21476;51.652;7.852;2022-08-02T10:54:59;30.30;93.30
35373;DHT22;21476;51.652;7.852;2022-08-02T10:57:30;30.20;93.20
35373;DHT22;21476;51.652;7.852;2022-08-02T10:59:57;30.30;93.60
35373;DHT22;21476;51.652;7.852;2022-08-02T11:05:04;30.00;93.30
35373;DHT22;21476;51.652;7.852;2022-08-02T11:07:39;29.70;92.90
35373;DHT22;21476;51.652;7.852;2022-08-02T11:10:37;29.90;92.90
35373;DHT22;21476;51.652;7.852;2022-08-02T11:13:12;29.90;93.20
35373;DHT22;21476;51.652;7.852;2022-08-02T11:15:47;29.60;93.30
35373;DHT22;21476;51.652;7.852;2022-08-02T11:18:14;30.10;93.60
35373;DHT22;21476;51.652;7.852;2022-08-02T11:20:40;30.70;92.80
35373;DHT22;21476;51.652;7.852;2022-08-02T11:23:37;30.10;92.60
35373;DHT22;21476;51.652;7.852;2022-08-02T11:29:00;30.30;93.30
35373;DHT22;21476;51.652;7.852;2022-08-02T11:31:27;30.60;92.20
35373;DHT22;21476;51.652;7.852;2022-08-02T11:33:53;30.90;92.10
35373;DHT22;21476;51.652;7.852;2022-08-02T11:36:19;31.00;91.60
35373;DHT22;21476;51.652;7.852;2022-08-02T11:38:45;31.00;91.80
35373;DHT22;21476;51.652;7.852;2022-08-02T11:41:21;31.40;91.60
35373;DHT22;21476;51.652;7.852;2022-08-02T11:43:53;31.70;91.80
35373;DHT22;21476;51.652;7.852;2022-08-02T11:46:19;31.90;90.30
35373;DHT22;21476;51.652;7.852;2022-08-02T11:48:45;32.00;90.50
35373;DHT22;21476;51.652;7.852;2022-08-02T11:51:16;32.30;90.60
35373;DHT22;21476;51.652;7.852;2022-08-02T11:53:49;31.70;89.70
35373;DHT22;21476;51.652;7.852;2022-08-02T11:56:16;31.80;90.50
35373;DHT22;21476;51.652;7.852;2022-08-02T11:59:09;31.80;90.10
35373;DHT22;21476;51.652;7.852;2022-08-02T12:01:37;31.80;90.00
35373;DHT22;21476;51.652;7.852;2022-08-02T12:04:04;31.80;91.00
35373;DHT22;21476;51.652;7.852;2022-08-02T12:06:31;31.30;89.20
35373;DHT22;21476;51.652;7.852;2022-08-02T12:09:08;31.30;89.00
35373;DHT22;21476;51.652;7.852;2022-08-02T12:11:34;31.40;90.40
35373;DHT22;21476;51.652;7.852;2022-08-02T12:14:03;31.50;90.90
35373;DHT22;21476;51.652;7.852;2022-08-02T12:16:37;30.80;90.70
35373;DHT22;21476;51.652;7.852;2022-08-02T12:19:22;30.50;91.80
35373;DHT22;21476;51.652;7.852;2022-08-02T12:22:13;30.10;91.80
35373;DHT22;21476;51.652;7.852;2022-08-02T12:24:43;30.20;92.50
35373;DHT22;21476;51.652;7.852;2022-08-02T12:27:09;30.20;91.90
35373;DHT22;21476;51.652;7.852;2022-08-02T12:29:37;30.20;92.00
35373;DHT22;21476;51.652;7.852;2022-08-02T12:32:04;30.20;91.50
35373;DHT22;21476;51.652;7.852;2022-08-02T12:34:31;30.00;91.10
35373;DHT22;21476;51.652;7.852;2022-08-02T12:37:08;29.80;91.60
35373;DHT22;21476;51.652;7.852;2022-08-02T12:39:37;29.90;91.70
35373;DHT22;21476;51.652;7.852;2022-08-02T12:42:04;29.90;91.80
35373;DHT22;21476;51.652;7.852;2022-08-02T12:44:30;29.90;92.80
35373;DHT22;21476;51.652;7.852;2022-08-02T12:47:07;30.20;91.90
35373;DHT22;21476;51.652;7.852;2022-08-02T12:49:34;30.50;91.90
35373;DHT22;21476;51.652;7.852;2022-08-02T12:52:00;30.70;91.30
35373;DHT22;21476;51.652;7.852;2022-08-02T12:54:29;30.50;91.00
35373;DHT22;21476;51.652;7.852;2022-08-02T12:59:38;30.60;91.70
35373;DHT22;21476;51.652;7.852;2022-08-02T13:02:09;30.70;92.10
35373;DHT22;21476;51.652;7.852;2022-08-02T13:04:35;30.70;91.70
35373;DHT22;21476;51.652;7.852;2022-08-02T13:07:01;30.40;92.10
35373;DHT22;21476;51.652;7.852;2022-08-02T13:09:27;30.50;91.70
35373;DHT22;21476;51.652;7.852;2022-08-02T13:11:52;30.30;91.60
35373;DHT22;21476;51.652;7.852;2022-08-02T13:14:18;30.50;92.90
35373;DHT22;21476;51.652;7.852;2022-08-02T13:16:45;30.40;91.70
35373;DHT22;21476;51.652;7.852;2022-08-02T13:19:11;30.40;91.90
35373;DHT22;21476;51.652;7.852;2022-08-02T13:21:39;30.20;92.10
35373;DHT22;21476;51.652;7.852;2022-08-02T13:24:05;30.20;92.70
35373;DHT22;21476;51.652;7.852;2022-08-02T13:26:31;30.10;92.30
35373;DHT22;21476;51.652;7.852;2022-08-02T13:28:57;30.00;92.30
35373;DHT22;21476;51.652;7.852;2022-08-02T13:31:22;30.10;92.70
35373;DHT22;21476;51.652;7.852;2022-08-02T13:33:48;30.20;92.50
35373;DHT22;21476;51.652;7.852;2022-08-02T13:36:14;29.90;92.80
35373;DHT22;21476;51.652;7.852;2022-08-02T13:38:39;29.80;93.10
35373;DHT22;21476;51.652;7.852;2022-08-02T13:41:05;29.80;92.90
35373;DHT22;21476;51.652;7.852;2022-08-02T13:43:34;29.50;92.60
35373;DHT22;21476;51.652;7.852;2022-08-02T13:46:00;29.50;93.20
35373;DHT22;21476;51.652;7.852;2022-08-02T13:48:26;29.70;93.50
35373;DHT22;21476;51.652;7.852;2022-08-02T13:50:53;29.90;94.20
35373;DHT22;21476;51.652;7.852;2022-08-02T13:53:18;30.00;93.90
35373;DHT22;21476;51.652;7.852;2022-08-02T13:55:44;30.10;93.50
35373;DHT22;21476;51.652;7.852;2022-08-02T13:58:10;30.20;93.00
35373;DHT22;21476;51.652;7.852;2022-08-02T14:00:35;30.30;93.50
35373;DHT22;21476;51.652;7.852;2022-08-02T14:03:01;30.40;93.30
35373;DHT22;21476;51.652;7.852;2022-08-02T14:05:27;30.40;93.20
35373;DHT22;21476;51.652;7.852;2022-08-02T14:07:58;30.40;93.10
35373;DHT22;21476;51.652;7.852;2022-08-02T14:10:25;30.40;93.30
35373;DHT22;21476;51.652;7.852;2022-08-02T14:12:54;30.20;93.00
35373;DHT22;21476;51.652;7.852;2022-08-02T14:15:20;30.10;93.30
35373;DHT22;21476;51.652;7.852;2022-08-02T14:17:46;30.00;93.10
35373;DHT22;21476;51.652;7.852;2022-08-02T14:20:12;30.10;93.40
35373;DHT22;21476;51.652;7.852;2022-08-02T14:22:38;30.10;93.40
35373;DHT22;21476;51.652;7.852;2022-08-02T14:25:04;29.90;92.90
35373;DHT22;21476;51.652;7.852;2022-08-02T14:27:30;29.80;93.10
35373;DHT22;21476;51.652;7.852;2022-08-02T14:29:57;29.80;93.10
35373;DHT22;21476;51.652;7.852;2022-08-02T14:32:23;29.90;93.50
35373;DHT22;21476;51.652;7.852;2022-08-02T14:34:48;29.80;93.40
35373;DHT22;21476;51.652;7.852;2022-08-02T14:37:14;29.80;92.60
35373;DHT22;21476;51.652;7.852;2022-08-02T14:39:40;29.80;92.90
35373;DHT22;21476;51.652;7.852;2022-08-02T14:42:06;29.40;93.10
35373;DHT22;21476;51.652;7.852;2022-08-02T14:44:32;29.40;92.70
35373;DHT22;21476;51.652;7.852;2022-08-02T14:46:59;29.40;93.30
35373;DHT22;21476;51.652;7.852;2022-08-02T14:49:25;29.30;93.00
35373;DHT22;21476;51.652;7.852;2022-08-02T14:51:51;29.40;93.60
35373;DHT22;21476;51.652;7.852;2022-08-02T14:54:17;29.50;92.90
35373;DHT22;21476;51.652;7.852;2022-08-02T14:56:42;29.20;91.70
35373;DHT22;21476;51.652;7.852;2022-08-02T14:59:08;29.20;92.30
35373;DHT22;21476;51.652;7.852;2022-08-02T15:01:34;29.20;92.60
35373;DHT22;21476;51.652;7.852;2022-08-02T15:03:59;29.20;92.90
35373;DHT22;21476;51.652;7.852;2022-08-02T15:06:25;29.10;93.70
35373;DHT22;21476;51.652;7.852;2022-08-02T15:08:57;29.10;93.00
35373;DHT22;21476;51.652;7.852;2022-08-02T15:11:23;29.10;93.00
35373;DHT22;21476;51.652;7.852;2022-08-02T15:13:49;29.10;93.60
35373;DHT22;21476;51.652;7.852;2022-08-02T15:16:15;29.10;93.00
35373;DHT22;21476;51.652;7.852;2022-08-02T15:18:40;29.10;93.30
35373;DHT22;21476;51.652;7.852;2022-08-02T15:21:06;29.10;92.50
35373;DHT22;21476;51.652;7.852;2022-08-02T15:23:31;29.00;93.10
35373;DHT22;21476;51.652;7.852;2022-08-02T15:25:57;29.00;92.90
35373;DHT22;21476;51.652;7.852;2022-08-02T15:28:23;28.90;93.10
35373;DHT22;21476;51.652;7.852;2022-08-02T15:30:49;28.90;93.30
35373;DHT22;21476;51.652;7.852;2022-08-02T15:33:15;28.90;92.80
35373;DHT22;21476;51.652;7.852;2022-08-02T15:35:41;28.90;92.90
35373;DHT22;21476;51.652;7.852;2022-08-02T15:38:06;28.90;93.20
35373;DHT22;21476;51.652;7.852;2022-08-02T15:40:32;28.90;93.10
35373;DHT22;21476;51.652;7.852;2022-08-02T15:42:58;28.80;92.90
35373;DHT22;21476;51.652;7.852;2022-08-02T15:45:23;28.80;92.70
35373;DHT22;21476;51.652;7.852;2022-08-02T15:47:52;28.80;92.60
35373;DHT22;21476;51.652;7.852;2022-08-02T15:50:17;28.60;93.20
35373;DHT22;21476;51.652;7.852;2022-08-02T15:52:43;28.70;92.80
35373;DHT22;21476;51.652;7.852;2022-08-02T15:55:09;28.50;93.10
35373;DHT22;21476;51.652;7.852;2022-08-02T15:57:35;28.50;92.70
35373;DHT22;21476;51.652;7.852;2022-08-02T16:00:00;28.50;92.90
35373;DHT22;21476;51.652;7.852;2022-08-02T16:02:26;28.50;93.10